Weather at Arizona 1 Airport

Public forecast

Using degrees Celsius for public forecast. Weather courtesy of forecast.io.

Closest aviation weather report (METAR) to Arizona 1 Airport

Closest report is Cloncurry Airport, 84.5 nm (156.4 km) NW. Retrieved 2021/06/21 10:00 UTC (32 minutes ago):

YCCY 211000Z AUTO 15007KT 9999 // NCD 20/M00 Q1019

Closest aviation forecast (TAF) to Arizona 1 Airport

Closest forecast is Mount Isa Airport, 131.0 nm (242.6 km) WNW. Retrieved 2021/06/21 06:03 UTC (4 hours ago):

TAF TAF YBMA 210406Z 2106/2118 14006KT CAVOK